Time;durP1;ratioP1;P1;durP2;ratioP2;P2;SDS_P1;SDS_P2;PMS_P1;PMS_P2;Temp;Humidity;BMP_temperature;BMP_pressure;BME280_temperature;BME280_humidity;BME280_pressure;Samples;Min_cycle;Max_cycle;Signal;HPM_P1;HPM_P2
2021/03/13 00:00:20;;;;;;;10.65;1.70;;;7.30;87.20;;;;;;5027178;28;20032;-77
2021/03/13 00:02:46;;;;;;;18.98;2.28;;;7.30;87.10;;;;;;5025713;28;20029;-77
2021/03/13 00:05:23;;;;;;;8.63;0.93;;;7.30;87.30;;;;;;5031658;28;20040;-77
2021/03/13 00:07:49;;;;;;;9.25;1.00;;;7.20;87.30;;;;;;5030394;28;20030;-77
2021/03/13 00:10:15;;;;;;;9.95;1.13;;;7.10;87.50;;;;;;5034165;28;20029;-77
2021/03/13 00:12:41;;;;;;;9.82;1.70;;;7.10;87.70;;;;;;5033147;28;20071;-77
2021/03/13 00:15:07;;;;;;;9.80;1.17;;;7.10;87.90;;;;;;5028395;28;20033;-78
2021/03/13 00:17:32;;;;;;;12.15;1.83;;;7.10;88.00;;;;;;5032735;28;20139;-78
2021/03/13 00:19:58;;;;;;;7.90;0.90;;;7.10;88.00;;;;;;5033939;28;20470;-78
2021/03/13 00:22:24;;;;;;;9.75;0.82;;;7.10;88.10;;;;;;5015344;28;20037;-77
2021/03/13 00:24:49;;;;;;;12.20;0.80;;;7.10;88.20;;;;;;5032678;28;20025;-77
2021/03/13 00:27:16;;;;;;;9.60;1.10;;;7.10;88.40;;;;;;5025288;28;20121;-77
2021/03/13 00:29:42;;;;;;;10.23;0.98;;;7.10;88.40;;;;;;5033607;28;20486;-77
2021/03/13 00:32:08;;;;;;;12.13;1.45;;;7.10;88.50;;;;;;5032137;28;20029;-77
2021/03/13 00:34:33;;;;;;;13.48;0.60;;;7.10;88.50;;;;;;5024249;28;20022;-78
2021/03/13 00:36:59;;;;;;;11.82;0.80;;;7.10;88.60;;;;;;5033368;28;20104;-77
2021/03/13 00:39:25;;;;;;;7.60;0.70;;;7.20;88.60;;;;;;5032494;28;20033;-78
2021/03/13 00:41:50;;;;;;;9.93;1.17;;;7.10;88.50;;;;;;5026132;28;20034;-77
2021/03/13 00:44:16;;;;;;;10.88;0.80;;;7.20;88.60;;;;;;5032033;28;20033;-77
2021/03/13 00:46:43;;;;;;;7.85;0.80;;;7.20;88.60;;;;;;5033060;28;20108;-78
2021/03/13 00:49:09;;;;;;;7.88;0.90;;;7.20;88.60;;;;;;5032841;28;20056;-78
2021/03/13 00:51:34;;;;;;;7.82;1.38;;;7.20;88.60;;;;;;4998796;28;20034;-79
2021/03/13 00:54:00;;;;;;;11.65;1.58;;;7.20;88.70;;;;;;5014968;28;20060;-77
2021/03/13 00:56:25;;;;;;;10.85;0.80;;;7.20;88.90;;;;;;5031931;28;20387;-77
2021/03/13 00:58:51;;;;;;;10.00;0.90;;;7.20;88.90;;;;;;5019546;28;20603;-77
2021/03/13 01:01:17;;;;;;;6.40;0.90;;;7.20;88.90;;;;;;5033160;28;20435;-78
2021/03/13 01:03:42;;;;;;;9.60;1.38;;;7.20;88.90;;;;;;5032747;28;20038;-77
2021/03/13 01:06:08;;;;;;;9.25;1.00;;;7.30;89.00;;;;;;5032135;28;20033;-78
2021/03/13 01:08:33;;;;;;;9.18;0.90;;;7.30;89.20;;;;;;5030038;28;20034;-78
2021/03/13 01:10:59;;;;;;;11.90;1.10;;;7.20;89.20;;;;;;5033027;28;20022;-78
2021/03/13 01:13:24;;;;;;;13.30;1.30;;;7.20;89.50;;;;;;5031911;28;20438;-78
2021/03/13 01:15:50;;;;;;;6.93;0.90;;;7.20;89.80;;;;;;5032189;28;20032;-78
2021/03/13 01:18:18;;;;;;;12.50;1.10;;;7.20;90.00;;;;;;5032246;28;20422;-79
2021/03/13 01:20:45;;;;;;;9.25;1.10;;;7.20;90.10;;;;;;5033011;28;20084;-77
2021/03/13 01:23:11;;;;;;;10.77;1.15;;;7.20;90.30;;;;;;5031852;28;20571;-77
2021/03/13 01:25:36;;;;;;;8.45;0.95;;;7.20;90.40;;;;;;5032797;28;20069;-77
2021/03/13 01:28:02;;;;;;;9.45;1.02;;;7.10;90.40;;;;;;5022111;28;20046;-79
2021/03/13 01:30:29;;;;;;;10.65;1.30;;;7.10;90.50;;;;;;5013265;28;20030;-79
2021/03/13 01:32:54;;;;;;;9.32;1.08;;;7.10;90.60;;;;;;5012110;28;20045;-79
2021/03/13 01:35:21;;;;;;;8.57;1.25;;;7.10;90.70;;;;;;5012676;28;20477;-79
2021/03/13 01:37:46;;;;;;;10.05;1.50;;;7.10;90.80;;;;;;5012851;28;20029;-79
2021/03/13 01:40:17;;;;;;;8.93;1.40;;;7.00;90.90;;;;;;4994952;28;20038;-79
2021/03/13 01:42:48;;;;;;;8.75;1.52;;;7.00;91.10;;;;;;5013044;28;20030;-79
2021/03/13 01:45:16;;;;;;;5.75;1.20;;;7.00;91.20;;;;;;5012212;28;20383;-78
2021/03/13 01:47:43;;;;;;;9.48;1.50;;;7.00;91.40;;;;;;5016438;28;20033;-78
2021/03/13 01:50:11;;;;;;;8.77;1.55;;;7.00;91.40;;;;;;5004578;28;20101;-79
2021/03/13 01:52:36;;;;;;;9.57;0.98;;;6.90;91.50;;;;;;5008754;28;20032;-80
2021/03/13 01:55:06;;;;;;;5.93;0.80;;;7.00;91.60;;;;;;5012814;28;20539;-78
2021/03/13 01:57:32;;;;;;;5.38;0.70;;;6.90;91.70;;;;;;5016404;28;20045;-78
2021/03/13 01:59:57;;;;;;;5.28;0.70;;;6.90;91.80;;;;;;5016013;28;20030;-78
2021/03/13 02:02:23;;;;;;;6.43;0.95;;;6.90;91.80;;;;;;5016170;28;20041;-78
2021/03/13 02:04:49;;;;;;;7.13;0.82;;;6.90;91.90;;;;;;5015495;28;20184;-78
2021/03/13 02:07:21;;;;;;;6.47;1.40;;;6.90;91.90;;;;;;5016081;28;20508;-78
2021/03/13 02:10:14;;;;;;;6.53;1.10;;;6.90;92.00;;;;;;5013876;28;20028;-78
2021/03/13 02:13:06;;;;;;;6.47;1.00;;;6.80;92.00;;;;;;4998640;28;20096;-77
2021/03/13 02:15:36;;;;;;;7.68;0.98;;;6.80;92.10;;;;;;5015648;28;20025;-76
2021/03/13 02:18:16;;;;;;;5.68;1.00;;;6.70;92.20;;;;;;4996498;28;20104;-77
2021/03/13 02:21:10;;;;;;;5.85;1.08;;;6.70;92.30;;;;;;5015709;28;20034;-78
2021/03/13 02:24:03;;;;;;;10.65;1.67;;;6.70;92.40;;;;;;5012465;28;20523;-78
2021/03/13 02:26:38;;;;;;;4.82;0.98;;;6.70;92.70;;;;;;4998621;28;20409;-77
2021/03/13 02:29:16;;;;;;;9.32;1.25;;;6.70;92.80;;;;;;5021415;28;20041;-77
2021/03/13 02:31:47;;;;;;;7.82;1.48;;;6.70;92.90;;;;;;5033804;28;20081;-78
2021/03/13 02:34:16;;;;;;;6.30;1.40;;;6.70;93.00;;;;;;5006995;28;20022;-77
2021/03/13 02:36:44;;;;;;;4.25;1.10;;;6.70;93.40;;;;;;5035475;28;20017;-77
2021/03/13 02:39:10;;;;;;;8.50;1.23;;;6.70;93.20;;;;;;5032122;28;20037;-77
2021/03/13 02:41:43;;;;;;;4.60;1.25;;;6.70;93.20;;;;;;5035241;28;20038;-78
2021/03/13 02:44:12;;;;;;;5.38;1.50;;;6.70;93.30;;;;;;5034722;28;20021;-78
2021/03/13 02:46:45;;;;;;;7.43;1.73;;;6.70;93.30;;;;;;5035415;28;20041;-77
2021/03/13 02:49:11;;;;;;;10.43;1.75;;;6.70;93.30;;;;;;5028618;28;20033;-79
2021/03/13 02:51:39;;;;;;;5.82;1.80;;;6.70;93.40;;;;;;5034757;28;20036;-76
2021/03/13 02:54:06;;;;;;;6.07;1.40;;;6.70;93.40;;;;;;5034335;28;20052;-77
2021/03/13 02:56:33;;;;;;;9.15;1.88;;;6.70;93.50;;;;;;5033696;28;20021;-78
2021/03/13 02:58:59;;;;;;;4.43;1.65;;;6.60;93.60;;;;;;5033936;28;20060;-77
2021/03/13 03:01:27;;;;;;;10.57;2.33;;;6.70;93.70;;;;;;5015656;28;20026;-77
2021/03/13 03:03:54;;;;;;;10.70;3.00;;;6.70;93.80;;;;;;5034192;28;20528;-77
2021/03/13 03:06:20;;;;;;;6.32;2.33;;;6.70;93.80;;;;;;5016989;28;20042;-78
2021/03/13 03:08:47;;;;;;;10.20;3.00;;;6.70;93.80;;;;;;5034235;28;20025;-77
2021/03/13 03:11:14;;;;;;;5.85;2.42;;;6.70;93.90;;;;;;5033723;28;20029;-78
2021/03/13 03:13:41;;;;;;;6.43;2.42;;;6.70;93.90;;;;;;5034574;28;20025;-78
2021/03/13 03:16:07;;;;;;;8.82;2.33;;;6.70;93.90;;;;;;5024390;28;20050;-78
2021/03/13 03:18:34;;;;;;;6.68;2.72;;;6.80;94.00;;;;;;5014917;28;20037;-77
2021/03/13 03:21:01;;;;;;;9.40;2.15;;;6.80;93.90;;;;;;5034330;28;20064;-79
2021/03/13 03:23:31;;;;;;;6.07;2.65;;;6.80;93.90;;;;;;5034874;28;20065;-77
2021/03/13 03:25:57;;;;;;;7.82;2.45;;;6.80;93.90;;;;;;5008057;28;20025;-77
2021/03/13 03:28:25;;;;;;;7.90;1.88;;;6.80;93.90;;;;;;5014727;28;20046;-77
2021/03/13 03:30:51;;;;;;;7.55;1.95;;;6.80;93.90;;;;;;5033357;28;20036;-78
2021/03/13 03:33:17;;;;;;;6.47;1.83;;;6.80;94.00;;;;;;5034413;28;20040;-76
2021/03/13 03:35:43;;;;;;;9.88;1.88;;;6.80;94.10;;;;;;5033961;28;20033;-76
2021/03/13 03:38:10;;;;;;;5.70;1.65;;;6.80;94.10;;;;;;5034324;28;20028;-76
2021/03/13 03:40:36;;;;;;;10.65;2.05;;;6.80;94.20;;;;;;5033142;28;20056;-78
2021/03/13 03:43:08;;;;;;;8.27;1.33;;;6.90;94.20;;;;;;5016629;28;20026;-76
2021/03/13 03:45:34;;;;;;;9.73;2.35;;;6.90;94.20;;;;;;5031292;28;20053;-78
2021/03/13 03:48:08;;;;;;;8.30;1.98;;;6.90;94.20;;;;;;5034304;28;20057;-78
2021/03/13 03:50:35;;;;;;;7.47;1.40;;;6.90;94.20;;;;;;5032820;28;20108;-78
2021/03/13 03:53:01;;;;;;;5.00;1.20;;;6.90;94.20;;;;;;5033827;28;20021;-77
2021/03/13 03:55:29;;;;;;;8.88;2.05;;;6.80;94.20;;;;;;5027003;28;20032;-78
2021/03/13 03:57:55;;;;;;;8.00;1.48;;;6.90;94.30;;;;;;5033810;28;20112;-78
2021/03/13 04:00:22;;;;;;;8.88;2.35;;;6.90;94.40;;;;;;5021289;28;20365;-77
2021/03/13 04:02:48;;;;;;;6.68;1.33;;;6.90;94.30;;;;;;5014192;28;20036;-78
2021/03/13 04:05:18;;;;;;;11.07;1.67;;;6.90;94.40;;;;;;5032303;28;20034;-78
2021/03/13 04:07:45;;;;;;;5.30;1.75;;;6.90;94.40;;;;;;5033431;28;20087;-77
2021/03/13 04:10:13;;;;;;;7.55;1.48;;;6.90;94.40;;;;;;5023924;28;20033;-78
2021/03/13 04:12:42;;;;;;;8.63;1.42;;;7.00;94.40;;;;;;5012714;28;20022;-78
2021/03/13 04:15:09;;;;;;;6.70;1.50;;;7.00;94.40;;;;;;4996691;28;20022;-79
2021/03/13 04:17:39;;;;;;;5.57;1.23;;;7.00;94.40;;;;;;5033383;28;20021;-77
2021/03/13 04:20:07;;;;;;;5.22;1.05;;;7.00;94.40;;;;;;5033269;28;20434;-77
2021/03/13 04:22:33;;;;;;;7.72;1.85;;;7.00;94.30;;;;;;5032720;28;20396;-80
2021/03/13 04:25:02;;;;;;;5.40;1.40;;;7.10;94.40;;;;;;5025218;28;20542;-77
2021/03/13 04:27:28;;;;;;;9.40;1.40;;;7.10;94.40;;;;;;5031794;28;20538;-80
2021/03/13 04:29:53;;;;;;;7.53;2.42;;;7.10;94.30;;;;;;5015211;28;20034;-78
2021/03/13 04:32:22;;;;;;;6.57;1.50;;;7.10;94.30;;;;;;5032748;28;20025;-79
2021/03/13 04:34:49;;;;;;;6.15;1.75;;;7.20;94.30;;;;;;5033451;28;20081;-79
2021/03/13 04:37:16;;;;;;;8.30;1.83;;;7.20;94.20;;;;;;5032575;28;20369;-78
2021/03/13 04:39:43;;;;;;;8.85;1.20;;;7.20;94.20;;;;;;5033014;28;20431;-77
2021/03/13 04:42:09;;;;;;;4.68;1.00;;;7.20;94.40;;;;;;5014859;28;20048;-79
2021/03/13 04:44:37;;;;;;;4.60;0.98;;;7.20;94.20;;;;;;5033338;28;20099;-78
2021/03/13 04:47:03;;;;;;;10.13;1.80;;;7.30;94.10;;;;;;5032461;28;20059;-76
2021/03/13 04:49:28;;;;;;;3.42;0.98;;;7.30;94.10;;;;;;5031632;28;20037;-79
2021/03/13 04:51:59;;;;;;;4.72;1.15;;;7.30;94.00;;;;;;5031975;28;20017;-79
2021/03/13 04:54:27;;;;;;;6.90;1.13;;;7.30;94.00;;;;;;5032995;28;20052;-78
2021/03/13 04:56:53;;;;;;;3.50;1.20;;;7.40;93.90;;;;;;5012115;28;20026;-79
2021/03/13 04:59:19;;;;;;;7.13;1.27;;;7.40;93.90;;;;;;5032820;28;20108;-80
2021/03/13 05:01:45;;;;;;;6.15;1.25;;;7.40;93.80;;;;;;5032502;28;20112;-78
2021/03/13 05:04:11;;;;;;;8.20;1.63;;;7.40;93.80;;;;;;5032660;28;20036;-78
2021/03/13 05:06:36;;;;;;;5.03;0.90;;;7.50;93.90;;;;;;5024060;28;20022;-80
2021/03/13 05:09:02;;;;;;;5.07;1.23;;;7.50;93.90;;;;;;5032622;28;20033;-78
2021/03/13 05:11:29;;;;;;;8.25;1.13;;;7.50;93.90;;;;;;5032301;28;20025;-80
2021/03/13 05:13:55;;;;;;;6.40;0.93;;;7.50;93.90;;;;;;5033044;28;20013;-78
2021/03/13 05:16:20;;;;;;;3.40;0.80;;;7.50;94.10;;;;;;5031703;28;20029;-80
2021/03/13 05:18:46;;;;;;;3.80;1.00;;;7.40;94.00;;;;;;5032669;28;20036;-79
2021/03/13 05:21:13;;;;;;;6.47;0.90;;;7.40;94.10;;;;;;5013580;28;20036;-80
2021/03/13 05:23:38;;;;;;;6.63;1.17;;;7.40;94.10;;;;;;5036991;28;20036;-78
2021/03/13 05:26:04;;;;;;;4.65;0.60;;;7.40;94.20;;;;;;5036319;28;20033;-81
2021/03/13 05:28:29;;;;;;;4.50;0.50;;;7.50;94.20;;;;;;5015137;28;20440;-80
2021/03/13 05:30:55;;;;;;;5.18;1.10;;;7.50;94.20;;;;;;4995719;28;20027;-79
2021/03/13 05:33:21;;;;;;;3.58;0.50;;;7.50;94.10;;;;;;5011280;28;20030;-78
2021/03/13 05:35:46;;;;;;;4.53;0.52;;;7.50;94.10;;;;;;5017085;28;20476;-80
2021/03/13 05:38:12;;;;;;;7.22;1.23;;;7.60;94.10;;;;;;5014911;28;20491;-80
2021/03/13 05:40:38;;;;;;;5.57;0.90;;;7.60;94.10;;;;;;5016563;28;20029;-80
2021/03/13 05:43:04;;;;;;;6.97;0.95;;;7.60;94.00;;;;;;5016756;28;20033;-79
2021/03/13 05:45:30;;;;;;;6.43;0.88;;;7.60;94.30;;;;;;5016359;28;20061;-78
2021/03/13 05:47:56;;;;;;;5.32;0.60;;;7.60;94.00;;;;;;5016209;28;20056;-80
2021/03/13 05:50:23;;;;;;;2.53;0.50;;;7.60;94.10;;;;;;5017471;28;20018;-79
2021/03/13 05:52:56;;;;;;;6.10;0.70;;;7.60;94.10;;;;;;5016039;28;20018;-78
2021/03/13 05:55:22;;;;;;;4.47;0.82;;;7.60;94.10;;;;;;5015445;28;20048;-79
2021/03/13 05:57:51;;;;;;;5.43;0.70;;;7.60;94.20;;;;;;5015556;28;20042;-80
2021/03/13 06:00:17;;;;;;;9.60;0.80;;;7.70;94.20;;;;;;5015833;28;20030;-78
2021/03/13 06:02:43;;;;;;;5.13;0.80;;;7.70;94.10;;;;;;5016003;28;20034;-77
2021/03/13 06:05:09;;;;;;;6.75;1.08;;;7.70;94.20;;;;;;5016459;28;20040;-77
2021/03/13 06:07:35;;;;;;;5.57;0.50;;;7.70;94.20;;;;;;5014868;28;20034;-76
2021/03/13 06:10:01;;;;;;;5.43;0.70;;;7.70;94.30;;;;;;5016293;28;20026;-77
2021/03/13 06:12:27;;;;;;;2.30;0.50;;;7.70;94.30;;;;;;5016154;28;20032;-75
2021/03/13 06:14:54;;;;;;;6.57;0.55;;;7.70;94.40;;;;;;5015483;28;20026;-77
2021/03/13 06:17:22;;;;;;;4.35;0.50;;;7.70;94.30;;;;;;5007873;28;20499;-76
2021/03/13 06:19:53;;;;;;;4.05;0.90;;;7.70;94.40;;;;;;5014480;28;20468;-78
2021/03/13 06:22:30;;;;;;;3.50;0.45;;;7.70;94.10;;;;;;5011551;28;20029;-79
2021/03/13 06:25:22;;;;;;;3.92;0.30;;;7.70;93.90;;;;;;5014959;28;20108;-78
2021/03/13 06:28:13;;;;;;;1.58;0.32;;;7.70;93.70;;;;;;5007065;28;20076;-77
2021/03/13 06:30:42;;;;;;;1.67;0.30;;;7.70;93.30;;;;;;5035302;28;20029;-76
2021/03/13 06:33:27;;;;;;;5.85;0.30;;;7.60;93.30;;;;;;5033358;28;20067;-76
2021/03/13 06:36:02;;;;;;;1.63;0.20;;;7.60;92.50;;;;;;5034752;28;20480;-76
2021/03/13 06:38:29;;;;;;;3.35;0.20;;;7.50;92.00;;;;;;5032409;28;20128;-78
2021/03/13 06:40:57;;;;;;;0.70;0.10;;;7.50;91.30;;;;;;5033035;28;20029;-78
2021/03/13 06:43:31;;;;;;;2.22;0.20;;;7.50;91.00;;;;;;5029635;28;20030;-77
2021/03/13 06:46:05;;;;;;;3.13;0.20;;;7.50;90.60;;;;;;5035004;28;20026;-77
2021/03/13 06:48:39;;;;;;;1.80;0.13;;;7.50;90.10;;;;;;5034530;28;20033;-78
2021/03/13 06:51:18;;;;;;;1.45;0.30;;;7.50;90.00;;;;;;5028263;28;20023;-77
2021/03/13 06:53:46;;;;;;;1.10;0.10;;;7.50;89.40;;;;;;5016024;28;20045;-78
2021/03/13 06:56:13;;;;;;;2.95;0.13;;;7.50;88.80;;;;;;5026776;28;20060;-76
2021/03/13 06:58:40;;;;;;;2.80;0.20;;;7.50;88.50;;;;;;5025481;28;20041;-76
2021/03/13 07:01:07;;;;;;;1.17;0.20;;;7.50;87.30;;;;;;5031467;28;20029;-79
2021/03/13 07:03:33;;;;;;;2.47;0.30;;;7.50;86.60;;;;;;5033511;28;20025;-77
2021/03/13 07:05:59;;;;;;;4.75;0.20;;;7.50;86.30;;;;;;5016219;28;20037;-77
2021/03/13 07:08:30;;;;;;;4.63;0.20;;;7.50;85.90;;;;;;5033385;28;20033;-78
2021/03/13 07:11:11;;;;;;;4.13;0.75;;;7.50;85.10;;;;;;5035104;28;20025;-75
2021/03/13 07:13:48;;;;;;;4.10;0.30;;;7.50;84.90;;;;;;5034069;28;20395;-79
2021/03/13 07:16:23;;;;;;;6.55;0.50;;;7.50;85.00;;;;;;5031649;28;20091;-79
2021/03/13 07:18:50;;;;;;;3.22;0.30;;;7.40;85.00;;;;;;5029648;28;20060;-78
2021/03/13 07:21:17;;;;;;;3.83;0.30;;;7.40;85.00;;;;;;5017844;28;20096;-77
2021/03/13 07:23:53;;;;;;;6.00;0.32;;;7.40;84.70;;;;;;5029810;28;20037;-78
2021/03/13 07:26:20;;;;;;;6.80;0.47;;;7.40;84.50;;;;;;5027361;28;20366;-77
2021/03/13 07:28:48;;;;;;;8.02;0.90;;;7.40;83.90;;;;;;5023381;28;20104;-78
2021/03/13 07:31:17;;;;;;;5.20;0.60;;;7.40;83.90;;;;;;5022608;28;20022;-78
2021/03/13 07:33:47;;;;;;;8.63;1.10;;;7.40;84.10;;;;;;5029724;28;20044;-79
2021/03/13 07:36:17;;;;;;;11.88;1.17;;;7.40;83.90;;;;;;5034297;28;20415;-76
2021/03/13 07:38:44;;;;;;;10.77;0.73;;;7.40;84.00;;;;;;5017691;28;20025;-79
2021/03/13 07:41:11;;;;;;;6.88;0.40;;;7.40;83.30;;;;;;4996457;28;20033;-77
2021/03/13 07:43:42;;;;;;;8.43;0.73;;;7.50;83.70;;;;;;5015013;28;20033;-77
2021/03/13 07:46:09;;;;;;;7.43;1.25;;;7.50;83.70;;;;;;5014578;28;20025;-77
2021/03/13 07:48:44;;;;;;;10.63;1.15;;;7.50;83.10;;;;;;4996860;28;20387;-79
2021/03/13 07:51:09;;;;;;;7.25;0.70;;;7.50;83.10;;;;;;5021480;28;20108;-77
2021/03/13 07:53:42;;;;;;;8.45;0.63;;;7.50;82.60;;;;;;5032613;28;20053;-76
2021/03/13 07:56:13;;;;;;;13.73;1.40;;;7.60;82.70;;;;;;5033134;28;20045;-77
2021/03/13 07:58:42;;;;;;;7.90;0.80;;;7.60;82.50;;;;;;5027908;28;20053;-76
2021/03/13 08:01:09;;;;;;;7.88;0.70;;;7.60;82.60;;;;;;5032513;28;20056;-75
2021/03/13 08:03:35;;;;;;;16.20;2.42;;;7.60;82.90;;;;;;5034015;28;20021;-77
2021/03/13 08:06:03;;;;;;;8.77;0.88;;;7.70;81.90;;;;;;5029473;28;20108;-76
2021/03/13 08:08:50;;;;;;;12.93;1.13;;;7.80;82.10;;;;;;5033538;28;20056;-78
2021/03/13 08:11:28;;;;;;;7.75;0.60;;;7.90;82.10;;;;;;5031899;28;20025;-79
2021/03/13 08:13:56;;;;;;;9.15;0.55;;;7.90;81.60;;;;;;5024485;28;20101;-76
2021/03/13 08:16:33;;;;;;;11.82;0.88;;;7.90;81.60;;;;;;5009533;28;20087;-77
2021/03/13 08:19:00;;;;;;;7.38;0.73;;;8.00;81.40;;;;;;5026615;28;20376;-77
2021/03/13 08:21:25;;;;;;;11.27;0.75;;;8.00;81.60;;;;;;5029890;28;20069;-78
2021/03/13 08:24:02;;;;;;;13.80;1.00;;;8.10;81.40;;;;;;5034005;28;20495;-77
2021/03/13 08:26:33;;;;;;;11.52;0.93;;;8.10;81.00;;;;;;5031473;28;20033;-80
2021/03/13 08:29:06;;;;;;;11.32;0.60;;;8.10;81.30;;;;;;5029820;28;20232;-79
2021/03/13 08:31:32;;;;;;;7.82;1.25;;;8.10;81.30;;;;;;5029340;28;20117;-77
2021/03/13 08:34:10;;;;;;;10.32;1.30;;;8.10;81.70;;;;;;5032225;28;20025;-77
2021/03/13 08:36:46;;;;;;;7.90;0.70;;;8.10;81.30;;;;;;5030637;28;20052;-78
2021/03/13 08:39:34;;;;;;;9.05;0.88;;;8.20;81.30;;;;;;5026578;28;20048;-76
2021/03/13 08:42:00;;;;;;;9.45;0.98;;;8.20;80.80;;;;;;5024029;28;20088;-79
2021/03/13 08:44:26;;;;;;;8.85;0.80;;;8.30;79.90;;;;;;5033439;28;20037;-78
2021/03/13 08:46:59;;;;;;;18.40;1.95;;;8.30;79.40;;;;;;5032854;28;20025;-78
2021/03/13 08:49:26;;;;;;;15.05;1.10;;;8.30;78.90;;;;;;5033281;28;20033;-78
2021/03/13 08:52:10;;;;;;;12.38;1.17;;;8.30;78.20;;;;;;5032897;28;20028;-77
2021/03/13 08:54:39;;;;;;;15.85;1.58;;;8.30;78.10;;;;;;5028077;28;20028;-79
2021/03/13 08:57:24;;;;;;;17.48;1.60;;;8.30;79.20;;;;;;5010328;28;20506;-77
2021/03/13 08:59:56;;;;;;;11.95;1.10;;;8.30;78.90;;;;;;5033226;28;20026;-78
2021/03/13 09:02:28;;;;;;;11.55;1.95;;;8.20;79.10;;;;;;5015147;28;20072;-78
2021/03/13 09:05:14;;;;;;;14.50;1.15;;;8.20;79.10;;;;;;5033247;28;20037;-77
2021/03/13 09:07:44;;;;;;;12.25;1.02;;;8.30;79.40;;;;;;5013095;28;20076;-79
2021/03/13 09:10:10;;;;;;;16.27;2.63;;;8.30;78.40;;;;;;5013967;28;20032;-78
2021/03/13 09:12:38;;;;;;;15.02;1.35;;;8.40;79.00;;;;;;5031548;28;20108;-79
2021/03/13 09:15:07;;;;;;;12.80;2.40;;;8.50;78.80;;;;;;5033251;28;20365;-78
2021/03/13 09:17:34;;;;;;;14.07;1.67;;;8.50;78.50;;;;;;5034213;28;20021;-77
2021/03/13 09:20:16;;;;;;;20.60;1.80;;;8.50;78.60;;;;;;5034129;28;20017;-80
2021/03/13 09:22:47;;;;;;;15.55;1.20;;;8.60;78.40;;;;;;5004716;28;20026;-79
2021/03/13 09:25:21;;;;;;;8.48;0.88;;;8.60;77.80;;;;;;5034219;28;20025;-79
2021/03/13 09:27:50;;;;;;;13.77;1.20;;;8.60;77.70;;;;;;5033091;28;20065;-78
2021/03/13 09:30:19;;;;;;;18.13;1.77;;;8.50;77.20;;;;;;5019939;28;20093;-77
2021/03/13 09:32:48;;;;;;;13.75;1.23;;;8.50;77.20;;;;;;5010164;28;20085;-77
2021/03/13 09:35:14;;;;;;;5.85;0.70;;;8.50;77.80;;;;;;4996178;28;20148;-78
2021/03/13 09:37:41;;;;;;;8.30;0.85;;;8.50;77.70;;;;;;5006158;28;20429;-79
2021/03/13 09:40:09;;;;;;;9.75;0.90;;;8.50;78.10;;;;;;4994560;28;20053;-77
2021/03/13 09:42:36;;;;;;;11.23;0.88;;;8.40;78.40;;;;;;4999620;28;20023;-78
2021/03/13 09:45:06;;;;;;;11.80;1.55;;;8.50;79.70;;;;;;5003460;28;20029;-80
2021/03/13 09:47:40;;;;;;;11.35;1.40;;;8.60;79.20;;;;;;5004953;28;20148;-80
2021/03/13 09:50:27;;;;;;;14.38;1.85;;;8.60;79.60;;;;;;5004262;28;20498;-80
2021/03/13 09:52:53;;;;;;;10.23;1.00;;;8.70;79.00;;;;;;4991498;28;20041;-77
2021/03/13 09:55:24;;;;;;;8.00;0.63;;;8.80;79.90;;;;;;5012340;28;20030;-77
2021/03/13 09:57:52;;;;;;;6.57;1.00;;;9.00;80.20;;;;;;5010913;28;20030;-79
2021/03/13 10:00:23;;;;;;;11.40;1.25;;;9.10;80.00;;;;;;4990046;28;20388;-79
2021/03/13 10:02:51;;;;;;;12.85;1.17;;;9.20;79.60;;;;;;5011680;28;20033;-78
2021/03/13 10:05:19;;;;;;;9.95;1.63;;;9.10;79.10;;;;;;5002318;28;20030;-76
2021/03/13 10:07:49;;;;;;;11.63;1.88;;;8.90;80.40;;;;;;4991540;28;20057;-76
2021/03/13 10:10:26;;;;;;;16.27;1.38;;;8.70;82.10;;;;;;4990721;28;20022;-76
2021/03/13 10:12:54;;;;;;;10.30;1.20;;;8.20;83.10;;;;;;4999422;28;20034;-77
2021/03/13 10:15:25;;;;;;;11.57;1.00;;;7.30;83.50;;;;;;5005012;28;20022;-78
2021/03/13 10:18:09;;;;;;;12.23;1.50;;;6.50;86.00;;;;;;5008125;28;20034;-77
2021/03/13 10:20:52;;;;;;;14.77;1.83;;;6.10;90.10;;;;;;5005671;28;20027;-77
2021/03/13 10:23:24;;;;;;;20.20;2.10;;;6.10;91.20;;;;;;5005647;28;20033;-78
2021/03/13 10:25:55;;;;;;;25.05;2.90;;;6.40;91.90;;;;;;5009322;28;20408;-77
2021/03/13 10:28:27;;;;;;;22.05;2.55;;;6.80;92.20;;;;;;5004034;28;20439;-78
2021/03/13 10:31:06;;;;;;;18.17;2.03;;;7.30;92.00;;;;;;5009577;28;20018;-83
2021/03/13 10:33:33;;;;;;;21.20;2.10;;;7.60;91.10;;;;;;5013923;28;20026;-81
2021/03/13 10:36:00;;;;;;;18.13;2.28;;;8.00;90.50;;;;;;5011257;28;20018;-80
2021/03/13 10:38:26;;;;;;;18.38;1.85;;;8.20;89.80;;;;;;5011819;28;20033;-77
2021/03/13 10:40:53;;;;;;;14.80;2.05;;;8.40;88.50;;;;;;5008936;28;20033;-80
2021/03/13 10:43:36;;;;;;;18.60;2.03;;;8.50;87.40;;;;;;5011369;28;20042;-78
2021/03/13 10:46:17;;;;;;;20.50;2.80;;;8.50;83.90;;;;;;5014075;28;20022;-78
2021/03/13 10:48:46;;;;;;;11.70;1.80;;;8.60;83.60;;;;;;5026767;28;20034;-77
2021/03/13 10:51:32;;;;;;;16.95;1.52;;;8.60;84.50;;;;;;5028795;28;20201;-79
2021/03/13 10:54:00;;;;;;;25.42;2.83;;;8.80;82.80;;;;;;5026377;28;20157;-78
2021/03/13 10:56:41;;;;;;;19.95;2.00;;;8.90;81.40;;;;;;5031197;28;20018;-78
2021/03/13 10:59:07;;;;;;;16.38;2.25;;;9.10;81.80;;;;;;5029420;28;20032;-82
2021/03/13 11:01:33;;;;;;;16.23;1.67;;;9.40;81.20;;;;;;5024818;28;20396;-77
2021/03/13 11:03:59;;;;;;;15.95;1.30;;;9.50;77.90;;;;;;5013943;28;20484;-79
2021/03/13 11:06:31;;;;;;;13.43;1.63;;;9.50;77.70;;;;;;5028628;28;20038;-78
2021/03/13 11:09:00;;;;;;;13.15;1.67;;;9.50;76.60;;;;;;5025739;28;20026;-79
2021/03/13 11:11:26;;;;;;;20.38;1.55;;;9.40;75.00;;;;;;5030347;28;20038;-77
2021/03/13 11:13:52;;;;;;;12.00;1.30;;;9.20;75.20;;;;;;5030970;28;20479;-77
2021/03/13 11:16:21;;;;;;;13.52;1.58;;;9.10;75.20;;;;;;5029421;28;20498;-75
2021/03/13 11:18:47;;;;;;;14.93;2.38;;;8.90;76.60;;;;;;5027566;28;20022;-78
2021/03/13 11:21:13;;;;;;;10.07;1.42;;;8.90;76.60;;;;;;5029312;28;20056;-79
2021/03/13 11:23:38;;;;;;;14.63;2.08;;;8.80;76.10;;;;;;5033334;28;20471;-79
2021/03/13 11:26:04;;;;;;;17.70;1.90;;;8.80;75.80;;;;;;5029830;28;20538;-82
2021/03/13 11:28:30;;;;;;;9.73;0.80;;;8.30;76.90;;;;;;5026644;28;20411;-80
2021/03/13 11:30:55;;;;;;;13.15;1.15;;;7.70;80.20;;;;;;5024871;28;20018;-80
2021/03/13 11:33:21;;;;;;;10.82;0.95;;;7.20;82.70;;;;;;5024502;28;20026;-78
2021/03/13 11:35:47;;;;;;;7.32;0.88;;;6.90;84.90;;;;;;5029707;28;20079;-80
2021/03/13 11:38:12;;;;;;;10.23;1.30;;;6.70;86.10;;;;;;5015085;28;20072;-80
2021/03/13 11:40:40;;;;;;;10.70;0.68;;;6.60;87.00;;;;;;5021985;28;20067;-80
2021/03/13 11:43:05;;;;;;;7.75;0.57;;;6.50;88.10;;;;;;5022929;28;20022;-78
2021/03/13 11:45:31;;;;;;;11.18;0.50;;;6.40;88.50;;;;;;5022830;28;20026;-84
2021/03/13 11:47:57;;;;;;;7.15;0.60;;;6.30;88.80;;;;;;5022663;28;20479;-84
2021/03/13 11:50:25;;;;;;;6.45;0.68;;;6.20;89.30;;;;;;5020864;28;20029;-82
2021/03/13 11:52:56;;;;;;;7.15;0.60;;;6.30;90.00;;;;;;5019348;28;20045;-81
2021/03/13 11:55:23;;;;;;;10.80;0.75;;;6.50;90.10;;;;;;5029604;28;20025;-82
2021/03/13 11:57:49;;;;;;;10.95;0.77;;;6.70;89.90;;;;;;5017999;28;20022;-79
2021/03/13 12:00:16;;;;;;;5.90;0.60;;;7.00;89.70;;;;;;5029553;28;20033;-80
2021/03/13 12:02:41;;;;;;;11.88;0.95;;;7.30;88.80;;;;;;5030430;28;20029;-83
2021/03/13 12:05:07;;;;;;;9.93;0.77;;;7.50;87.60;;;;;;5024105;28;20543;-76
2021/03/13 12:07:34;;;;;;;13.20;0.90;;;7.80;86.10;;;;;;5024315;28;20159;-79
2021/03/13 12:10:00;;;;;;;17.10;1.30;;;7.90;84.80;;;;;;5024323;28;20037;-81
2021/03/13 12:12:26;;;;;;;6.35;0.60;;;8.00;83.70;;;;;;5021344;28;20017;-80
2021/03/13 12:14:52;;;;;;;10.02;0.75;;;7.90;83.50;;;;;;5031404;28;20029;-78
2021/03/13 12:17:18;;;;;;;9.50;0.70;;;7.80;84.10;;;;;;5021498;28;20026;-78
2021/03/13 12:19:45;;;;;;;10.50;0.75;;;7.80;84.30;;;;;;5031266;28;20042;-76
2021/03/13 12:22:11;;;;;;;11.40;0.93;;;7.90;84.90;;;;;;5026762;28;20041;-76
2021/03/13 12:24:37;;;;;;;10.55;0.60;;;8.00;84.90;;;;;;5029555;28;20079;-77
2021/03/13 12:27:04;;;;;;;14.25;1.42;;;8.20;84.60;;;;;;5032297;28;20037;-77
2021/03/13 12:29:30;;;;;;;14.00;2.25;;;8.40;84.40;;;;;;5028050;28;20049;-78
2021/03/13 12:31:55;;;;;;;8.32;0.60;;;8.60;83.40;;;;;;5022542;28;20399;-77
2021/03/13 12:34:21;;;;;;;10.52;0.80;;;8.70;83.20;;;;;;5021115;28;20030;-77
2021/03/13 12:36:47;;;;;;;17.15;1.90;;;8.80;81.90;;;;;;5023988;28;20060;-79
2021/03/13 12:39:13;;;;;;;7.75;0.95;;;9.00;80.10;;;;;;5022750;28;20105;-80
2021/03/13 12:41:38;;;;;;;12.85;0.88;;;9.30;79.90;;;;;;5027018;28;20507;-84
2021/03/13 12:44:04;;;;;;;9.82;0.68;;;9.50;79.20;;;;;;5027973;28;20063;-77
2021/03/13 12:46:30;;;;;;;9.32;1.20;;;9.60;78.60;;;;;;5012645;28;20427;-78
2021/03/13 12:48:59;;;;;;;11.43;0.60;;;9.80;75.90;;;;;;5031884;28;20030;-81
2021/03/13 12:51:25;;;;;;;7.45;0.90;;;9.90;73.30;;;;;;5031243;28;20036;-79
2021/03/13 12:53:50;;;;;;;5.55;0.63;;;9.90;70.90;;;;;;5013250;28;20030;-78
2021/03/13 12:56:17;;;;;;;6.13;0.50;;;10.00;72.50;;;;;;5026394;28;20403;-81
2021/03/13 12:58:43;;;;;;;8.32;0.40;;;10.10;70.60;;;;;;5023295;28;20030;-78
2021/03/13 13:01:08;;;;;;;10.70;0.70;;;10.10;71.30;;;;;;5027505;28;20084;-80